Menu Close Menu
Station Historical Data
Daily Summary for August 14, 2017 Units:  English    Metric   Both
« Previous Day
Next Day »
Daily Weekly Monthly Yearly Custom
  High: Low: Average:
Temperature: 93.5 °F 71.6 °F 78.9 °F
Dew Point: 75.3 °F 69.2 °F 71.8 °F
Humidity: 93% 51% 80%
Wind Speed: 1.0mph 0.0mph 0mph
Wind Gust: 5.0mph - -
Wind- - South
Pressure: 29.96 in 29.84 in -
Precipitation: 0.00 in    
Historical Graphs
 
 
Tabular Data for August 14, 2017
Time Temperature Dew Point Pressure Wind Wind Speed Wind Gust Humidity Rainfall Rate (Hourly) solar Conditions
00:00 74.8 °F 71.0 °F 29.96 in Calm     88% 0.00 in WeatherDisplay:10.37 W/m2 SCT
00:10 74.6 °F 70.8 °F 29.95 in Calm     88% 0.00 in WeatherDisplay:10.37 W/m2 SCT
00:15 74.6 °F 70.8 °F 29.95 in Calm     88% 0.00 in WeatherDisplay:10.37 W/m2 CLR
00:20 74.5 °F 70.7 °F 29.95 in Calm     88% 0.00 in WeatherDisplay:10.37 W/m2 CLR
00:25 74.5 °F 70.7 °F 29.94 in Calm     88% 0.00 in WeatherDisplay:10.37 W/m2 CLR
00:30 74.3 °F 70.8 °F 29.94 in Calm     89% 0.00 in WeatherDisplay:10.37 W/m2 CLR
00:35 74.2 °F 70.7 °F 29.94 in Calm     89% 0.00 in WeatherDisplay:10.37 W/m2 CLR
00:40 74.1 °F 70.6 °F 29.94 in Calm     89% 0.00 in WeatherDisplay:10.37 W/m2 CLR
00:45 74.0 °F 70.6 °F 29.94 in Calm     89% 0.00 in WeatherDisplay:10.37 W/m2 CLR
00:50 74.0 °F 70.6 °F 29.94 in Calm     89% 0.00 in WeatherDisplay:10.37 W/m2 CLR
00:55 73.9 °F 70.5 °F 29.94 in Calm     89% 0.00 in WeatherDisplay:10.37 W/m2 CLR
01:00 73.8 °F 70.7 °F 29.94 in Calm     90% 0.00 in WeatherDisplay:10.37 W/m2 CLR
01:05 73.7 °F 70.6 °F 29.93 in Calm     90% 0.00 in WeatherDisplay:10.37 W/m2 CLR
01:10 73.6 °F 70.5 °F 29.93 in Calm     90% 0.00 in WeatherDisplay:10.37 W/m2 CLR
01:15 73.6 °F 70.5 °F 29.93 in Calm     90% 0.00 in WeatherDisplay:10.37 W/m2 CLR
01:20 73.5 °F 70.4 °F 29.93 in Calm     90% 0.00 in WeatherDisplay:10.37 W/m2 CLR
01:25 73.4 °F 70.3 °F 29.93 in Calm     90% 0.00 in WeatherDisplay:10.37 W/m2 CLR
01:30 73.3 °F 70.2 °F 29.93 in Calm     90% 0.00 in WeatherDisplay:10.37 W/m2 CLR
01:35 73.2 °F 70.1 °F 29.92 in Calm     90% 0.00 in WeatherDisplay:10.37 W/m2 CLR
01:40 73.1 °F 70.0 °F 29.93 in Calm     90% 0.00 in WeatherDisplay:10.37 W/m2 CLR
01:45 73.1 °F 70.3 °F 29.93 in Calm     91% 0.00 in WeatherDisplay:10.37 W/m2 CLR
01:50 73.0 °F 70.2 °F 29.92 in Calm     91% 0.00 in WeatherDisplay:10.37 W/m2 CLR
01:55 72.9 °F 70.1 °F 29.92 in Calm     91% 0.00 in WeatherDisplay:10.37 W/m2 CLR
02:00 72.8 °F 70.0 °F 29.92 in Calm     91% 0.00 in WeatherDisplay:10.37 W/m2 CLR
02:05 72.8 °F 70.0 °F 29.92 in Calm     91% 0.00 in WeatherDisplay:10.37 W/m2 CLR
02:10 72.7 °F 69.9 °F 29.92 in Calm     91% 0.00 in WeatherDisplay:10.37 W/m2 CLR
02:15 72.7 °F 69.9 °F 29.92 in Calm     91% 0.00 in WeatherDisplay:10.37 W/m2 CLR
02:20 72.7 °F 69.9 °F 29.92 in Calm     91% 0.00 in WeatherDisplay:10.37 W/m2 CLR
02:25 72.9 °F 70.1 °F 29.92 in Calm     91% 0.00 in WeatherDisplay:10.37 W/m2 CLR
02:30 72.9 °F 70.1 °F 29.92 in Calm     91% 0.00 in WeatherDisplay:10.37 W/m2 CLR
02:35 72.9 °F 70.1 °F 29.93 in Calm     91% 0.00 in WeatherDisplay:10.37 W/m2 CLR
02:40 72.9 °F 70.1 °F 29.93 in Calm     91% 0.00 in WeatherDisplay:10.37 W/m2 CLR
02:45 72.8 °F 70.0 °F 29.92 in Calm     91% 0.00 in WeatherDisplay:10.37 W/m2 CLR
02:50 72.7 °F 69.9 °F 29.92 in Calm     91% 0.00 in WeatherDisplay:10.37 W/m2 CLR
02:55 72.6 °F 69.8 °F 29.92 in Calm     91% 0.00 in WeatherDisplay:10.37 W/m2 CLR
03:00 72.6 °F 69.8 °F 29.92 in Calm     91% 0.00 in WeatherDisplay:10.37 W/m2 CLR
03:05 72.5 °F 69.7 °F 29.92 in Calm     91% 0.00 in WeatherDisplay:10.37 W/m2 CLR
03:10 72.5 °F 69.7 °F 29.92 in Calm     91% 0.00 in WeatherDisplay:10.37 W/m2 CLR
03:15 72.5 °F 69.7 °F 29.92 in Calm     91% 0.00 in WeatherDisplay:10.37 W/m2 FEW
03:20 72.5 °F 69.7 °F 29.92 in Calm     91% 0.00 in WeatherDisplay:10.37 W/m2 FEW
03:25 72.5 °F 70.0 °F 29.92 in Calm     92% 0.00 in WeatherDisplay:10.37 W/m2 FEW
03:30 72.6 °F 70.1 °F 29.92 in Calm     92% 0.00 in WeatherDisplay:10.37 W/m2 FEW
03:35 72.6 °F 70.1 °F 29.92 in Calm     92% 0.00 in WeatherDisplay:10.37 W/m2 FEW
03:40 72.6 °F 70.1 °F 29.92 in Calm     92% 0.00 in WeatherDisplay:10.37 W/m2 FEW
03:45 72.4 °F 69.7 °F 29.92 in Calm     91% 0.00 in WeatherDisplay:10.37 W/m2 FEW
03:50 72.3 °F 69.5 °F 29.92 in Calm     91% 0.00 in WeatherDisplay:10.37 W/m2 FEW
03:55 72.2 °F 69.4 °F 29.92 in Calm     91% 0.00 in WeatherDisplay:10.37 W/m2 FEW
04:00 72.2 °F 69.4 °F 29.92 in Calm     91% 0.00 in WeatherDisplay:10.37 W/m2 FEW
04:10 72.1 °F 69.6 °F 29.92 in Calm     92% 0.00 in WeatherDisplay:10.37 W/m2 FEW
04:15 72.1 °F 69.6 °F 29.92 in Calm     92% 0.00 in WeatherDisplay:10.37 W/m2 SCT
04:25 72.2 °F 69.8 °F 29.92 in Calm     92% 0.00 in WeatherDisplay:10.37 W/m2 SCT
04:30 72.4 °F 69.9 °F 29.92 in Calm     92% 0.00 in WeatherDisplay:10.37 W/m2 SCT
04:40 72.5 °F 70.0 °F 29.92 in Calm     92% 0.00 in WeatherDisplay:10.37 W/m2 SCT
04:45 72.4 °F 69.9 °F 29.92 in Calm     92% 0.00 in WeatherDisplay:10.37 W/m2 SCT
04:50 72.4 °F 69.9 °F 29.92 in Calm     92% 0.00 in WeatherDisplay:10.37 W/m2 SCT
04:55 72.4 °F 69.9 °F 29.92 in Calm     92% 0.00 in WeatherDisplay:10.37 W/m2 SCT
05:00 72.4 °F 69.9 °F 29.92 in Calm     92% 0.00 in WeatherDisplay:10.37 W/m2 SCT
05:05 72.4 °F 69.9 °F 29.92 in Calm     92% 0.00 in WeatherDisplay:10.37 W/m2 SCT
05:10 72.5 °F 70.0 °F 29.93 in Calm     92% 0.00 in WeatherDisplay:10.37 W/m2 SCT
05:15 72.4 °F 70.0 °F 29.93 in Calm     92% 0.00 in WeatherDisplay:10.37 W/m2 BKN
05:20 72.4 °F 69.9 °F 29.93 in Calm     92% 0.00 in WeatherDisplay:10.37 W/m2 BKN
05:25 72.3 °F 69.8 °F 29.93 in Calm     92% 0.00 in WeatherDisplay:10.37 W/m2 BKN
05:30 72.3 °F 69.8 °F 29.93 in Calm     92% 0.00 in WeatherDisplay:10.37 W/m2 BKN
05:40 72.3 °F 69.8 °F 29.93 in Calm     92% 0.00 in WeatherDisplay:10.37 W/m2 BKN
05:45 72.3 °F 69.8 °F 29.93 in Calm     92% 0.00 in WeatherDisplay:10.37 W/m2 BKN
05:50 72.2 °F 69.7 °F 29.93 in Calm     92% 0.00 in WeatherDisplay:10.37 W/m2 BKN
05:55 72.2 °F 69.7 °F 29.93 in Calm     92% 0.00 in WeatherDisplay:10.37 W/m2 BKN
06:00 72.2 °F 69.7 °F 29.93 in Calm     92% 0.00 in WeatherDisplay:10.37 W/m2 BKN
06:05 72.2 °F 69.7 °F 29.93 in Calm     92% 0.00 in WeatherDisplay:10.37 W/m2 BKN
06:10 72.1 °F 69.6 °F 29.93 in Calm     92% 0.00 in WeatherDisplay:10.37 W/m2 BKN
06:15 72.1 °F 69.6 °F 29.93 in Calm     92% 0.00 in WeatherDisplay:10.37 W/m2 FEW
06:20 72.1 °F 69.6 °F 29.93 in Calm     92% 0.00 in WeatherDisplay:10.37 W/m2 FEW
06:25 72.0 °F 69.5 °F 29.93 in Calm     92% 0.00 in WeatherDisplay:10.37 W/m2 FEW
06:30 72.0 °F 69.5 °F 29.94 in Calm     92% 0.00 in WeatherDisplay:10.37 W/m2 FEW
06:40 71.8 °F 69.4 °F 29.94 in Calm     92% 0.00 in WeatherDisplay:10.37 W/m2 FEW
06:45 71.8 °F 69.3 °F 29.94 in Calm     92% 0.00 in WeatherDisplay:10.37 W/m2 FEW
06:50 71.8 °F 69.3 °F 29.94 in Calm     92% 0.00 in WeatherDisplay:10.37 W/m2 FEW
06:55 71.7 °F 69.3 °F 29.95 in Calm     92% 0.00 in WeatherDisplay:10.37 W/m2 FEW
07:00 71.6 °F 69.2 °F 29.94 in Calm     92% 0.00 in WeatherDisplay:10.37 W/m2 FEW
07:05 71.6 °F 69.5 °F 29.95 in Calm     93% 0.00 in WeatherDisplay:10.37 W/m2 FEW
07:10 71.6 °F 69.5 °F 29.95 in Calm     93% 0.00 in WeatherDisplay:10.37 W/m2 FEW
07:15 71.6 °F 69.5 °F 29.95 in Calm     93% 0.00 in WeatherDisplay:10.37 W/m2 BKN
07:20 71.6 °F 69.5 °F 29.95 in Calm     93% 0.00 in WeatherDisplay:10.37 W/m2 BKN
07:25 71.7 °F 69.6 °F 29.95 in Calm     93% 0.00 in WeatherDisplay:10.37 W/m2 BKN
07:30 71.7 °F 69.6 °F 29.95 in Calm     93% 0.00 in WeatherDisplay:10.37 W/m2 BKN
07:35 71.7 °F 69.6 °F 29.95 in Calm     93% 0.00 in WeatherDisplay:10.37 W/m2 BKN
07:40 71.8 °F 69.6 °F 29.95 in Calm     93% 0.00 in WeatherDisplay:10.37 W/m2 BKN
07:50 72.0 °F 69.9 °F 29.94 in Calm     93% 0.00 in WeatherDisplay:10.37 W/m2 BKN
07:55 72.2 °F 70.1 °F 29.94 in Calm     93% 0.00 in WeatherDisplay:10.37 W/m2 BKN
08:00 72.3 °F 70.2 °F 29.94 in Calm     93% 0.00 in WeatherDisplay:10.37 W/m2 BKN
08:05 72.5 °F 70.4 °F 29.94 in Calm     93% 0.00 in WeatherDisplay:10.37 W/m2 BKN
08:10 72.7 °F 70.6 °F 29.94 in Calm     93% 0.00 in WeatherDisplay:10.37 W/m2 BKN
08:15 72.9 °F 70.8 °F 29.95 in Calm     93% 0.00 in WeatherDisplay:10.37 W/m2 SCT
08:20 73.1 °F 70.9 °F 29.95 in Calm     93% 0.00 in WeatherDisplay:10.37 W/m2 SCT
08:25 73.3 °F 71.1 °F 29.95 in Calm     93% 0.00 in WeatherDisplay:10.37 W/m2 SCT
08:30 73.6 °F 71.4 °F 29.95 in Calm     93% 0.00 in WeatherDisplay:10.37 W/m2 SCT
08:35 74.0 °F 71.8 °F 29.95 in Calm     93% 0.00 in WeatherDisplay:10.37 W/m2 SCT
08:40 74.2 °F 71.7 °F 29.95 in Calm     92% 0.00 in WeatherDisplay:10.37 W/m2 SCT
08:50 74.9 °F 72.5 °F 29.95 in Calm     92% 0.00 in WeatherDisplay:10.37 W/m2 SCT
08:55 75.4 °F 72.6 °F 29.95 in Calm     91% 0.00 in WeatherDisplay:10.37 W/m2 SCT
09:00 75.9 °F 73.0 °F 29.95 in Calm   1.0 mph 91% 0.00 in WeatherDisplay:10.37 W/m2 SCT
09:05 76.3 °F 73.2 °F 29.95 in Calm     90% 0.00 in WeatherDisplay:10.37 W/m2 SCT
09:10 76.6 °F 73.1 °F 29.95 in Calm     89% 0.00 in WeatherDisplay:10.37 W/m2 SCT
09:20 77.5 °F 73.7 °F 29.95 in Calm   1.0 mph 88% 0.00 in WeatherDisplay:10.37 W/m2 BKN
09:25 77.9 °F 73.7 °F 29.95 in Calm     87% 0.00 in WeatherDisplay:10.37 W/m2 BKN
09:30 78.0 °F 73.5 °F 29.95 in Calm     86% 0.00 in WeatherDisplay:10.37 W/m2 BKN
09:40 78.2 °F 73.7 °F 29.95 in Calm     86% 0.00 in WeatherDisplay:10.37 W/m2 BKN
09:45 78.4 °F 73.9 °F 29.95 in Calm     86% 0.00 in WeatherDisplay:10.37 W/m2 BKN
09:50 78.6 °F 73.8 °F 29.95 in Calm   1.0 mph 85% 0.00 in WeatherDisplay:10.37 W/m2 BKN
09:55 79.1 °F 74.2 °F 29.95 in Calm     85% 0.00 in WeatherDisplay:10.37 W/m2 BKN
10:00 79.3 °F 73.7 °F 29.95 in Calm   1.0 mph 83% 0.00 in WeatherDisplay:10.37 W/m2 BKN
10:10 79.9 °F 74.3 °F 29.95 in Calm   1.0 mph 83% 0.00 in WeatherDisplay:10.37 W/m2 BKN
10:15 80.3 °F 74.3 °F 29.95 in Calm     82% 0.00 in WeatherDisplay:10.37 W/m2 SCT
10:20 80.9 °F 74.5 °F 29.95 in Calm     81% 0.00 in WeatherDisplay:10.37 W/m2 SCT
10:25 81.4 °F 74.7 °F 29.95 in Calm     80% 0.00 in WeatherDisplay:10.37 W/m2 SCT
10:30 81.8 °F 74.2 °F 29.95 in Calm     78% 0.00 in WeatherDisplay:10.37 W/m2 SCT
10:40 82.5 °F 75.3 °F 29.95 in Calm     79% 0.00 in WeatherDisplay:10.37 W/m2 SCT
10:45 82.5 °F 74.2 °F 29.95 in Calm     76% 0.00 in WeatherDisplay:10.37 W/m2 SCT
10:50 82.5 °F 73.8 °F 29.95 in Calm     75% 0.00 in WeatherDisplay:10.37 W/m2 SCT
10:55 82.5 °F 73.4 °F 29.95 in Calm     74% 0.00 in WeatherDisplay:10.37 W/m2 SCT
11:00 83.0 °F 74.2 °F 29.95 in Calm     75% 0.00 in WeatherDisplay:10.37 W/m2 SCT
11:05 83.1 °F 73.9 °F 29.95 in Calm   1.0 mph 74% 0.00 in WeatherDisplay:10.37 W/m2 SCT
11:10 83.6 °F 75.2 °F 29.95 in Calm     76% 0.00 in WeatherDisplay:10.37 W/m2 SCT
11:15 83.9 °F 74.3 °F 29.95 in Calm     73% 0.00 in WeatherDisplay:10.37 W/m2 BKN
11:20 84.0 °F 72.3 °F 29.94 in Calm   1.0 mph 68% 0.00 in WeatherDisplay:10.37 W/m2 BKN
11:25 83.9 °F 73.9 °F 29.94 in Calm     72% 0.00 in WeatherDisplay:10.37 W/m2 BKN
11:30 84.1 °F 74.1 °F 29.94 in Calm     72% 0.00 in WeatherDisplay:10.37 W/m2 BKN
11:40 84.3 °F 73.4 °F 29.94 in Calm   1.0 mph 70% 0.00 in WeatherDisplay:10.37 W/m2 BKN
11:45 84.3 °F 73.4 °F 29.94 in Calm   1.0 mph 70% 0.00 in WeatherDisplay:10.37 W/m2 BKN
11:50 84.5 °F 74.5 °F 29.94 in Calm   1.0 mph 72% 0.00 in WeatherDisplay:10.37 W/m2 BKN
11:55 84.7 °F 74.7 °F 29.94 in Calm     72% 0.00 in WeatherDisplay:10.37 W/m2 BKN
12:00 85.1 °F 73.8 °F 29.94 in Calm   1.0 mph 69% 0.00 in WeatherDisplay:10.37 W/m2 BKN
12:10 85.2 °F 73.8 °F 29.94 in Calm   1.0 mph 69% 0.00 in WeatherDisplay:10.37 W/m2 BKN
12:15 85.4 °F 74.5 °F 29.93 in Calm   1.0 mph 70% 0.00 in WeatherDisplay:10.37 W/m2 BKN
12:25 86.2 °F 74.0 °F 29.93 in Calm   2.0 mph 67% 0.00 in WeatherDisplay:10.37 W/m2 BKN
12:30 86.7 °F 74.0 °F 29.93 in Calm   1.0 mph 66% 0.00 in WeatherDisplay:10.37 W/m2 BKN
12:40 87.1 °F 73.4 °F 29.93 in Calm   1.0 mph 64% 0.00 in WeatherDisplay:10.37 W/m2 BKN
12:45 86.8 °F 73.6 °F 29.93 in Calm   2.0 mph 65% 0.00 in WeatherDisplay:10.37 W/m2 BKN
12:50 86.8 °F 73.2 °F 29.93 in Calm     64% 0.00 in WeatherDisplay:10.37 W/m2 BKN
12:55 87.2 °F 74.0 °F 29.93 in Calm     65% 0.00 in WeatherDisplay:10.37 W/m2 BKN
13:00 87.5 °F 74.3 °F 29.93 in Calm   1.0 mph 65% 0.00 in WeatherDisplay:10.37 W/m2 BKN
13:10 88.8 °F 73.2 °F 29.92 in Calm   2.0 mph 60% 0.00 in WeatherDisplay:10.37 W/m2 BKN
13:15 89.4 °F 74.2 °F 29.92 in Calm   5.0 mph 61% 0.00 in WeatherDisplay:10.37 W/m2 BKN
13:20 90.2 °F 73.9 °F 29.92 in Calm     59% 0.00 in WeatherDisplay:10.37 W/m2 BKN
13:25 90.7 °F 72.3 °F 29.92 in SW 1.0 mph 3.0 mph 55% 0.00 in WeatherDisplay:10.37 W/m2 BKN
13:30 91.4 °F 72.4 °F 29.92 in Calm     54% 0.00 in WeatherDisplay:10.37 W/m2 BKN
13:40 92.1 °F 72.5 °F 29.92 in Calm     53% 0.00 in WeatherDisplay:10.37 W/m2 BKN
13:45 92.1 °F 73.6 °F 29.91 in Calm   1.0 mph 55% 0.00 in WeatherDisplay:10.37 W/m2 BKN
13:50 93.1 °F 74.0 °F 29.91 in Calm     54% 0.00 in WeatherDisplay:10.37 W/m2 BKN
13:55 93.5 °F 72.7 °F 29.91 in Calm   1.0 mph 51% 0.00 in WeatherDisplay:10.37 W/m2 BKN
14:00 92.4 °F 72.8 °F 29.91 in Calm   2.0 mph 53% 0.00 in WeatherDisplay:10.37 W/m2 BKN
14:10 91.7 °F 72.1 °F 29.90 in South 1.0 mph 2.0 mph 53% 0.00 in WeatherDisplay:10.37 W/m2 BKN
14:15 90.7 °F 71.8 °F 29.90 in Calm     54% 0.00 in WeatherDisplay:10.37 W/m2 BKN
14:20 90.6 °F 72.2 °F 29.90 in Calm     55% 0.00 in WeatherDisplay:10.37 W/m2 BKN
14:25 90.0 °F 71.7 °F 29.90 in Calm     55% 0.00 in WeatherDisplay:10.37 W/m2 BKN
14:30 89.7 °F 73.0 °F 29.90 in Calm     58% 0.00 in WeatherDisplay:10.37 W/m2 BKN
14:40 89.9 °F 75.1 °F 29.90 in Calm   2.0 mph 62% 0.00 in WeatherDisplay:10.37 W/m2 BKN
14:45 90.0 °F 73.7 °F 29.90 in Calm   1.0 mph 59% 0.00 in WeatherDisplay:10.37 W/m2 BKN
14:50 89.8 °F 72.6 °F 29.89 in Calm   1.0 mph 57% 0.00 in WeatherDisplay:10.37 W/m2 BKN
14:55 89.6 °F 71.3 °F 29.90 in Calm   1.0 mph 55% 0.00 in WeatherDisplay:10.37 W/m2 BKN
15:00 89.4 °F 72.1 °F 29.89 in Calm   1.0 mph 57% 0.00 in WeatherDisplay:10.37 W/m2 BKN
15:10 87.8 °F 72.2 °F 29.89 in Calm   1.0 mph 60% 0.00 in WeatherDisplay:10.37 W/m2 BKN
15:15 87.2 °F 73.5 °F 29.89 in ESE 1.0 mph 2.0 mph 64% 0.00 in WeatherDisplay:10.37 W/m2 BKN
15:20 87.0 °F 72.4 °F 29.88 in Calm   2.0 mph 62% 0.00 in WeatherDisplay:10.37 W/m2 BKN
15:25 87.5 °F 72.4 °F 29.88 in Calm     61% 0.00 in WeatherDisplay:10.37 W/m2 BKN
15:30 87.8 °F 70.2 °F 29.88 in Calm     56% 0.00 in WeatherDisplay:10.37 W/m2 BKN
15:35 88.3 °F 72.2 °F 29.87 in Calm     59% 0.00 in WeatherDisplay:10.37 W/m2 BKN
15:40 88.2 °F 71.0 °F 29.87 in Calm     57% 0.00 in WeatherDisplay:10.37 W/m2 BKN
15:45 87.6 °F 72.0 °F 29.87 in Calm     60% 0.00 in WeatherDisplay:10.37 W/m2 BKN
15:50 87.2 °F 72.1 °F 29.87 in Calm     61% 0.00 in WeatherDisplay:10.37 W/m2 BKN
15:55 87.2 °F 73.1 °F 29.87 in Calm     63% 0.00 in WeatherDisplay:10.37 W/m2 BKN
16:00 87.5 °F 71.9 °F 29.86 in Calm     60% 0.00 in WeatherDisplay:10.37 W/m2 BKN
16:05 87.9 °F 72.3 °F 29.86 in Calm     60% 0.00 in WeatherDisplay:10.37 W/m2 BKN
16:10 88.3 °F 71.6 °F 29.86 in Calm     58% 0.00 in WeatherDisplay:10.37 W/m2 BKN
16:15 88.4 °F 71.2 °F 29.87 in Calm   1.0 mph 57% 0.00 in WeatherDisplay:10.37 W/m2 BKN
16:20 88.1 °F 73.0 °F 29.87 in Calm   1.0 mph 61% 0.00 in WeatherDisplay:10.37 W/m2 BKN
16:25 87.9 °F 73.3 °F 29.87 in Calm     62% 0.00 in WeatherDisplay:10.37 W/m2 BKN
16:30 87.6 °F 73.5 °F 29.87 in Calm   1.0 mph 63% 0.00 in WeatherDisplay:10.37 W/m2 BKN
16:35 87.5 °F 72.9 °F 29.87 in Calm   1.0 mph 62% 0.00 in WeatherDisplay:10.37 W/m2 BKN
16:40 87.8 °F 71.7 °F 29.87 in Calm   1.0 mph 59% 0.00 in WeatherDisplay:10.37 W/m2 BKN
16:45 87.9 °F 72.3 °F 29.86 in Calm   1.0 mph 60% 0.00 in WeatherDisplay:10.37 W/m2 BKN
16:50 87.8 °F 72.2 °F 29.86 in Calm   1.0 mph 60% 0.00 in WeatherDisplay:10.37 W/m2 BKN
16:55 87.9 °F 71.8 °F 29.85 in Calm   1.0 mph 59% 0.00 in WeatherDisplay:10.37 W/m2 BKN
17:00 87.7 °F 72.1 °F 29.84 in Calm     60% 0.00 in WeatherDisplay:10.37 W/m2 BKN
17:05 87.1 °F 72.9 °F 29.84 in Calm   1.0 mph 63% 0.00 in WeatherDisplay:10.37 W/m2 BKN
17:10 86.4 °F 73.7 °F 29.84 in Calm   1.0 mph 66% 0.00 in WeatherDisplay:10.37 W/m2 BKN
17:20 85.8 °F 73.1 °F 29.85 in Calm     66% 0.00 in WeatherDisplay:10.37 W/m2 BKN
17:25 86.3 °F 72.6 °F 29.86 in Calm   1.0 mph 64% 0.00 in WeatherDisplay:10.37 W/m2 BKN
17:30 86.5 °F 72.4 °F 29.86 in Calm   1.0 mph 63% 0.00 in WeatherDisplay:10.37 W/m2 BKN
17:35 86.6 °F 73.0 °F 29.86 in Calm   1.0 mph 64% 0.00 in WeatherDisplay:10.37 W/m2 BKN
17:40 86.8 °F 73.6 °F 29.86 in Calm     65% 0.00 in WeatherDisplay:10.37 W/m2 BKN
17:45 86.7 °F 73.6 °F 29.86 in Calm   1.0 mph 65% 0.00 in WeatherDisplay:10.37 W/m2 BKN
17:50 86.5 °F 73.3 °F 29.85 in Calm     65% 0.00 in WeatherDisplay:10.37 W/m2 BKN
17:55 86.1 °F 73.9 °F 29.86 in Calm     67% 0.00 in WeatherDisplay:10.37 W/m2 BKN
18:00 85.7 °F 73.1 °F 29.86 in Calm     66% 0.00 in WeatherDisplay:10.37 W/m2 BKN
18:10 85.4 °F 74.1 °F 29.86 in Calm     69% 0.00 in WeatherDisplay:10.37 W/m2 BKN
18:15 85.1 °F 73.3 °F 29.87 in Calm   1.0 mph 68% 0.00 in WeatherDisplay:10.37 W/m2 BKN
18:20 84.5 °F 72.3 °F 29.87 in Calm   1.0 mph 67% 0.00 in WeatherDisplay:10.37 W/m2 BKN
18:25 84.0 °F 72.3 °F 29.87 in Calm     68% 0.00 in WeatherDisplay:10.37 W/m2 BKN
18:30 83.4 °F 72.1 °F 29.87 in Calm     69% 0.00 in WeatherDisplay:10.37 W/m2 BKN
18:35 83.1 °F 72.3 °F 29.87 in Calm     70% 0.00 in WeatherDisplay:10.37 W/m2 BKN
18:40 82.9 °F 71.7 °F 29.87 in Calm   2.0 mph 69% 0.00 in WeatherDisplay:10.37 W/m2 BKN
18:45 82.7 °F 71.5 °F 29.88 in Calm   1.0 mph 69% 0.00 in WeatherDisplay:10.37 W/m2 BKN
18:50 82.6 °F 71.8 °F 29.88 in Calm   1.0 mph 70% 0.00 in WeatherDisplay:10.37 W/m2 BKN
18:55 82.5 °F 71.7 °F 29.88 in Calm   1.0 mph 70% 0.00 in WeatherDisplay:10.37 W/m2 BKN
19:05 82.0 °F 72.1 °F 29.88 in Calm   1.0 mph 72% 0.00 in WeatherDisplay:10.37 W/m2 BKN
19:10 81.9 °F 72.0 °F 29.87 in Calm     72% 0.00 in WeatherDisplay:10.37 W/m2 BKN
19:15 81.7 °F 72.2 °F 29.88 in Calm     73% 0.00 in WeatherDisplay:10.37 W/m2 BKN
19:20 81.4 °F 72.3 °F 29.88 in Calm   1.0 mph 74% 0.00 in WeatherDisplay:10.37 W/m2 BKN
19:25 81.1 °F 72.4 °F 29.88 in Calm   1.0 mph 75% 0.00 in WeatherDisplay:10.37 W/m2 -RA
19:30 81.0 °F 72.3 °F 29.88 in Calm     75% 0.00 in WeatherDisplay:10.37 W/m2 -RA
19:35 80.7 °F 72.4 °F 29.89 in Calm     76% 0.00 in WeatherDisplay:10.37 W/m2 -RA
19:40 80.3 °F 73.2 °F 29.89 in Calm     79% 0.00 in WeatherDisplay:10.37 W/m2 -RA
19:45 79.9 °F 73.1 °F 29.89 in Calm     80% 0.00 in WeatherDisplay:10.37 W/m2 -RA
19:50 79.3 °F 73.0 °F 29.89 in Calm   1.0 mph 81% 0.00 in WeatherDisplay:10.37 W/m2 -RA
19:55 78.8 °F 73.2 °F 29.89 in Calm   1.0 mph 83% 0.00 in WeatherDisplay:10.37 W/m2 BKN
20:00 78.5 °F 72.9 °F 29.88 in Calm     83% 0.00 in WeatherDisplay:10.37 W/m2 BKN
20:05 78.3 °F 73.1 °F 29.89 in Calm     84% 0.00 in WeatherDisplay:10.37 W/m2 BKN
20:10 78.1 °F 73.2 °F 29.89 in Calm     85% 0.00 in WeatherDisplay:10.37 W/m2 BKN
20:15 77.9 °F 73.0 °F 29.89 in Calm     85% 0.00 in WeatherDisplay:10.37 W/m2 BKN
20:20 77.8 °F 73.3 °F 29.89 in Calm     86% 0.00 in WeatherDisplay:10.37 W/m2 BKN
20:25 77.6 °F 73.1 °F 29.89 in Calm     86% 0.00 in WeatherDisplay:10.37 W/m2 BKN
20:30 77.5 °F 73.3 °F 29.89 in Calm     87% 0.00 in WeatherDisplay:10.37 W/m2 BKN
20:35 77.3 °F 73.1 °F 29.89 in Calm   1.0 mph 87% 0.00 in WeatherDisplay:10.37 W/m2 BKN
20:40 77.3 °F 73.1 °F 29.89 in Calm     87% 0.00 in WeatherDisplay:10.37 W/m2 BKN
20:45 77.2 °F 73.0 °F 29.89 in Calm     87% 0.00 in WeatherDisplay:10.37 W/m2 BKN
20:50 77.2 °F 73.0 °F 29.89 in Calm     87% 0.00 in WeatherDisplay:10.37 W/m2 BKN
20:55 77.1 °F 73.0 °F 29.89 in Calm   1.0 mph 87% 0.00 in WeatherDisplay:10.37 W/m2 BKN
21:00 77.1 °F 72.9 °F 29.89 in Calm     87% 0.00 in WeatherDisplay:10.37 W/m2 BKN
21:10 77.0 °F 72.8 °F 29.90 in Calm     87% 0.00 in WeatherDisplay:10.37 W/m2 BKN
21:15 77.0 °F 72.8 °F 29.90 in Calm     87% 0.00 in WeatherDisplay:10.37 W/m2 BKN
21:20 76.9 °F 72.7 °F 29.91 in Calm     87% 0.00 in WeatherDisplay:10.37 W/m2 BKN
21:25 76.8 °F 72.6 °F 29.91 in Calm     87% 0.00 in WeatherDisplay:10.37 W/m2 BKN
21:30 76.8 °F 72.6 °F 29.91 in Calm     87% 0.00 in WeatherDisplay:10.37 W/m2 BKN
21:35 76.7 °F 72.5 °F 29.91 in Calm     87% 0.00 in WeatherDisplay:10.37 W/m2 BKN
21:40 76.6 °F 72.8 °F 29.91 in Calm     88% 0.00 in WeatherDisplay:10.37 W/m2 BKN
21:45 76.6 °F 72.8 °F 29.92 in Calm     88% 0.00 in WeatherDisplay:10.37 W/m2 BKN
21:50 76.5 °F 72.7 °F 29.92 in Calm     88% 0.00 in WeatherDisplay:10.37 W/m2 BKN
21:55 76.4 °F 72.6 °F 29.92 in Calm     88% 0.00 in WeatherDisplay:10.37 W/m2 BKN
22:00 76.3 °F 72.5 °F 29.92 in Calm     88% 0.00 in WeatherDisplay:10.37 W/m2 BKN
22:10 76.2 °F 72.4 °F 29.92 in Calm     88% 0.00 in WeatherDisplay:10.37 W/m2 BKN
22:15 76.0 °F 72.2 °F 29.93 in Calm     88% 0.00 in WeatherDisplay:10.37 W/m2 BKN
22:20 75.9 °F 72.1 °F 29.93 in Calm     88% 0.00 in WeatherDisplay:10.37 W/m2 BKN
22:25 75.9 °F 72.4 °F 29.92 in Calm     89% 0.00 in WeatherDisplay:10.37 W/m2 BKN
22:30 75.7 °F 72.2 °F 29.93 in Calm     89% 0.00 in WeatherDisplay:10.37 W/m2 BKN
22:35 75.7 °F 72.2 °F 29.93 in Calm     89% 0.00 in WeatherDisplay:10.37 W/m2 BKN
22:40 75.6 °F 72.1 °F 29.93 in Calm     89% 0.00 in WeatherDisplay:10.37 W/m2 BKN
22:45 75.5 °F 72.0 °F 29.93 in Calm     89% 0.00 in WeatherDisplay:10.37 W/m2 BKN
22:50 75.4 °F 71.9 °F 29.93 in Calm     89% 0.00 in WeatherDisplay:10.37 W/m2 BKN
22:55 75.3 °F 71.8 °F 29.93 in Calm     89% 0.00 in WeatherDisplay:10.37 W/m2 BKN
23:00 75.2 °F 71.7 °F 29.93 in Calm     89% 0.00 in WeatherDisplay:10.37 W/m2 BKN
23:05 75.1 °F 71.6 °F 29.93 in Calm     89% 0.00 in WeatherDisplay:10.37 W/m2 BKN
23:10 75.0 °F 71.6 °F 29.92 in Calm     89% 0.00 in WeatherDisplay:10.37 W/m2 BKN
23:15 75.0 °F 71.5 °F 29.92 in Calm     89% 0.00 in WeatherDisplay:10.37 W/m2 BKN
23:20 74.9 °F 71.8 °F 29.92 in Calm     90% 0.00 in WeatherDisplay:10.37 W/m2 BKN
23:25 74.9 °F 71.7 °F 29.92 in Calm     90% 0.00 in WeatherDisplay:10.37 W/m2 BKN
23:30 74.8 °F 71.7 °F 29.92 in Calm     90% 0.00 in WeatherDisplay:10.37 W/m2 BKN
23:35 74.7 °F 71.6 °F 29.92 in Calm     90% 0.00 in WeatherDisplay:10.37 W/m2 BKN
23:40 74.7 °F 71.6 °F 29.91 in Calm     90% 0.00 in WeatherDisplay:10.37 W/m2 BKN
23:45 74.7 °F 71.6 °F 29.91 in Calm     90% 0.00 in WeatherDisplay:10.37 W/m2 BKN
23:50 74.6 °F 71.5 °F 29.92 in Calm     90% 0.00 in WeatherDisplay:10.37 W/m2 BKN
23:55 74.6 °F 71.8 °F 29.91 in Calm     91% 0.00 in WeatherDisplay:10.37 W/m2 BKN
Piedmont Bend
Compliments of Weather Underground - 4 mb